createdAt,value
2023-05-17T00:02:19.301Z,100959.47
2023-05-17T00:05:21.429Z,100949.44
2023-05-17T00:08:23.487Z,100947.94
2023-05-17T00:11:25.508Z,100954.22
2023-05-17T00:14:27.647Z,100959.03
2023-05-17T00:17:30.066Z,100954.19
2023-05-17T00:20:32.217Z,100965.50
2023-05-17T00:23:34.294Z,100964.06
2023-05-17T00:26:37.546Z,100961.13
2023-05-17T00:29:39.647Z,100967.22
2023-05-17T00:32:41.871Z,100956.09
2023-05-17T00:35:44.020Z,100971.41
2023-05-17T00:38:46.878Z,100968.88
2023-05-17T00:41:49.170Z,100966.16
2023-05-17T00:44:51.509Z,100973.50
2023-05-17T00:47:53.697Z,100968.88
2023-05-17T00:50:56.574Z,100968.25
2023-05-17T00:53:59.081Z,100969.53
2023-05-17T00:57:01.563Z,100961.75
2023-05-17T01:00:05.686Z,100956.50
2023-05-17T01:03:08.222Z,100974.72
2023-05-17T01:06:10.585Z,100968.03
2023-05-17T01:09:12.826Z,100966.56
2023-05-17T01:12:33.285Z,100970.53
2023-05-17T01:15:41.798Z,100972.44
2023-05-17T01:18:46.658Z,100969.09
2023-05-17T01:22:16.074Z,100974.53
2023-05-17T01:25:26.772Z,100971.38
2023-05-17T01:28:32.126Z,100973.47
2023-05-17T01:31:37.205Z,100966.97
2023-05-17T01:34:39.395Z,100963.41
2023-05-17T01:37:41.562Z,100969.69
2023-05-17T01:41:01.755Z,100972.00
2023-05-17T01:44:20.160Z,100973.47
2023-05-17T01:47:41.692Z,100973.91
2023-05-17T01:50:49.080Z,100974.72
2023-05-17T01:54:13.400Z,100965.31
2023-05-17T01:57:16.793Z,100964.47
2023-05-17T02:00:20.035Z,100964.69
2023-05-17T02:03:22.471Z,100960.47
2023-05-17T02:06:28.054Z,100967.16
2023-05-17T02:09:31.065Z,100966.97
2023-05-17T02:12:33.562Z,100960.88
2023-05-17T02:15:36.508Z,100969.69
2023-05-17T02:18:40.673Z,100963.19
2023-05-17T02:21:42.841Z,100954.41
2023-05-17T02:24:44.987Z,100972.44
2023-05-17T02:27:47.307Z,100977.88
2023-05-17T02:30:49.399Z,100969.91
2023-05-17T02:33:51.527Z,100970.56
2023-05-17T02:36:53.713Z,100977.25
2023-05-17T02:39:55.846Z,100974.50
2023-05-17T02:42:57.954Z,100978.47
2023-05-17T02:46:00.113Z,100980.59
2023-05-17T02:49:02.294Z,100983.91
2023-05-17T02:52:05.402Z,100983.06
2023-05-17T02:55:07.853Z,100991.88
2023-05-17T02:58:09.932Z,100984.34
2023-05-17T03:01:12.036Z,101000.03
2023-05-17T03:04:14.193Z,101001.09
2023-05-17T03:07:16.391Z,100999.41
2023-05-17T03:10:18.863Z,101004.47
2023-05-17T03:13:21.784Z,101011.16
2023-05-17T03:16:23.877Z,101006.56
2023-05-17T03:19:27.836Z,101004.06
2023-05-17T03:22:30.130Z,101016.81
2023-05-17T03:25:34.237Z,101015.56
2023-05-17T03:28:37.130Z,101024.78
2023-05-17T03:31:40.390Z,101024.13
2023-05-17T03:34:42.477Z,101030.00
2023-05-17T03:37:44.563Z,101032.50
2023-05-17T03:40:47.142Z,101032.91
2023-05-17T03:43:49.397Z,101031.88
2023-05-17T03:46:52.130Z,101039.63
2023-05-17T03:49:55.035Z,101035.25
2023-05-17T03:52:57.268Z,101036.06
2023-05-17T03:55:59.522Z,101023.94
2023-05-17T03:59:18.210Z,101031.06
2023-05-17T04:05:41.698Z,101030.25
2023-05-17T04:08:44.531Z,101025.03
2023-05-17T04:11:46.837Z,101019.16
2023-05-17T04:14:48.937Z,101019.56
2023-05-17T04:17:51.016Z,101025.03
2023-05-17T04:20:55.459Z,101026.72
2023-05-17T04:23:59.529Z,101034.25
2023-05-17T04:27:05.463Z,101031.06
2023-05-17T04:30:08.352Z,101036.13
2023-05-17T04:33:12.715Z,101023.13
2023-05-17T04:36:16.309Z,101020.63
2023-05-17T04:39:18.910Z,101026.94
2023-05-17T04:42:21.831Z,101036.41
2023-05-17T04:45:29.208Z,101040.84
2023-05-17T04:48:32.714Z,101041.81
2023-05-17T04:51:35.036Z,101047.88
2023-05-17T04:54:37.747Z,101053.91
2023-05-17T04:57:43.028Z,101050.69
2023-05-17T05:00:48.253Z,101056.28
2023-05-17T05:03:50.510Z,101047.66
2023-05-17T05:06:53.585Z,101066.97
2023-05-17T05:09:55.593Z,101052.78
2023-05-17T05:12:58.948Z,101051.63
2023-05-17T05:16:01.252Z,101053.19
2023-05-17T05:19:04.333Z,101065.16
2023-05-17T05:22:07.054Z,101061.91
2023-05-17T05:25:14.917Z,101067.09
2023-05-17T05:28:17.346Z,101062.84
2023-05-17T05:31:21.411Z,101057.31
2023-05-17T05:34:28.742Z,101056.75
2023-05-17T05:37:32.127Z,101063.84
2023-05-17T05:40:37.353Z,101072.91
2023-05-17T05:43:42.926Z,101060.28
2023-05-17T05:46:46.492Z,101062.84
2023-05-17T05:49:49.960Z,101060.53
2023-05-17T05:53:03.813Z,101058.00
2023-05-17T05:56:17.322Z,101063.44
2023-05-17T05:59:19.623Z,101073.94
2023-05-17T06:02:21.763Z,101069.13
2023-05-17T06:05:23.985Z,101077.28
2023-05-17T06:08:26.086Z,101074.94
2023-05-17T06:11:28.183Z,101085.44
2023-05-17T06:14:30.474Z,101082.94
2023-05-17T06:17:32.924Z,101078.91
2023-05-17T06:20:35.094Z,101092.59
2023-05-17T06:23:37.161Z,101090.06
2023-05-17T06:26:40.927Z,101089.88
2023-05-17T06:29:42.973Z,101086.28
2023-05-17T06:32:45.055Z,101099.06
2023-05-17T06:35:56.049Z,101096.56
2023-05-17T06:38:59.743Z,101083.97
2023-05-17T06:42:01.971Z,101099.47
2023-05-17T06:45:11.364Z,101107.25
2023-05-17T06:48:14.037Z,101096.75
2023-05-17T06:51:16.047Z,101107.66
2023-05-17T06:54:19.722Z,101113.94
2023-05-17T06:57:21.777Z,101106.59
2023-05-17T07:00:25.884Z,101107.59
2023-05-17T07:03:28.118Z,101107.97
2023-05-17T07:06:31.422Z,101103.09
2023-05-17T07:09:33.450Z,101107.88
2023-05-17T07:12:36.620Z,101101.13
2023-05-17T07:15:39.153Z,101108.88
2023-05-17T07:18:41.294Z,101114.13
2023-05-17T07:21:43.284Z,101107.59
2023-05-17T07:24:46.450Z,101098.34
2023-05-17T07:27:48.879Z,101111.97
2023-05-17T07:30:51.152Z,101110.06
2023-05-17T07:33:53.183Z,101103.53
2023-05-17T07:36:55.333Z,101110.06
2023-05-17T07:39:57.395Z,101111.53
2023-05-17T07:42:59.421Z,101115.91
2023-05-17T07:46:01.742Z,101119.03
2023-05-17T07:49:06.596Z,101119.59
2023-05-17T07:52:08.935Z,101119.97
2023-05-17T07:55:11.361Z,101117.44
2023-05-17T07:58:13.552Z,101114.03
2023-05-17T08:01:15.948Z,101118.22
2023-05-17T08:04:19.557Z,101130.84
2023-05-17T08:07:21.756Z,101123.47
2023-05-17T08:10:27.622Z,101118.63
2023-05-17T08:13:29.932Z,101125.91
2023-05-17T08:16:38.175Z,101121.91
2023-05-17T08:19:41.660Z,101130.28
2023-05-17T08:22:43.859Z,101125.03
2023-05-17T08:25:46.488Z,101115.56
2023-05-17T08:28:48.817Z,101122.25
2023-05-17T08:31:51.702Z,101122.88
2023-05-17T08:34:55.021Z,101123.47
2023-05-17T08:37:57.376Z,101121.97
2023-05-17T08:41:00.141Z,101124.69
2023-05-17T08:44:04.560Z,101120.69
2023-05-17T08:47:12.186Z,101119.22
2023-05-17T08:50:14.455Z,101124.25
2023-05-17T08:53:17.976Z,101112.72
2023-05-17T08:56:21.634Z,101123.81
2023-05-17T08:59:23.944Z,101115.59
2023-05-17T09:02:28.538Z,101114.94
2023-05-17T09:05:30.861Z,101113.44
2023-05-17T09:08:33.294Z,101114.25
2023-05-17T09:11:35.525Z,101113.69
2023-05-17T09:14:37.661Z,101109.00
2023-05-17T09:17:41.433Z,101108.53
2023-05-17T09:20:51.822Z,101110.59
2023-05-17T09:24:05.413Z,101106.94
2023-05-17T09:27:08.502Z,101109.00
2023-05-17T09:30:11.811Z,101108.34
2023-05-17T09:33:16.596Z,101110.69
2023-05-17T09:36:24.398Z,101095.69
2023-05-17T09:39:27.224Z,101101.53
2023-05-17T09:42:29.652Z,101099.41
2023-05-17T09:45:36.356Z,101097.31
2023-05-17T09:48:39.395Z,101093.56
2023-05-17T09:51:43.828Z,101098.22
2023-05-17T09:54:52.980Z,101094.03
2023-05-17T09:58:03.478Z,101089.16
2023-05-17T10:01:07.495Z,101083.69
2023-05-17T10:04:10.799Z,101091.28
2023-05-17T10:07:14.889Z,101081.41
2023-05-17T10:10:18.410Z,101080.94
2023-05-17T10:13:26.559Z,101076.13
2023-05-17T10:16:29.641Z,101081.22
2023-05-17T10:19:35.729Z,101068.63
2023-05-17T10:22:39.627Z,101075.69
2023-05-17T10:25:43.265Z,101080.13
2023-05-17T10:28:46.603Z,101083.91
2023-05-17T10:31:53.825Z,101080.78
2023-05-17T10:35:09.489Z,101082.22
2023-05-17T10:38:13.821Z,101066.88
2023-05-17T10:41:18.372Z,101088.09
2023-05-17T10:44:22.420Z,101064.13
2023-05-17T10:47:33.596Z,101072.56
2023-05-17T10:50:41.123Z,101068.78
2023-05-17T10:54:06.177Z,101065.88
2023-05-17T10:57:09.803Z,101069.06
2023-05-17T11:00:20.520Z,101065.75
2023-05-17T11:03:29.391Z,101067.09
2023-05-17T11:06:36.605Z,101059.69
2023-05-17T11:09:41.069Z,101060.94
2023-05-17T11:12:48.089Z,101066.19
2023-05-17T11:16:07.914Z,101064.59
2023-05-17T11:19:12.350Z,101065.66
2023-05-17T11:22:16.849Z,101056.59
2023-05-17T11:25:19.296Z,101051.50
2023-05-17T11:28:22.762Z,101063.81
2023-05-17T11:31:33.099Z,101054.06
2023-05-17T11:34:35.407Z,101052.31
2023-05-17T11:37:37.529Z,101040.66
2023-05-17T11:40:40.467Z,101041.69
2023-05-17T11:43:47.466Z,101035.59
2023-05-17T11:46:50.678Z,101041.44
2023-05-17T11:49:57.133Z,101042.28
2023-05-17T11:53:00.411Z,101030.13
2023-05-17T11:56:07.175Z,101026.69
2023-05-17T11:59:10.472Z,101029.56
2023-05-17T12:02:34.513Z,101031.34
2023-05-17T12:05:37.064Z,101024.59
2023-05-17T12:08:46.034Z,101021.75
2023-05-17T12:11:50.359Z,101015.19
2023-05-17T12:14:53.811Z,101006.75
2023-05-17T12:17:56.319Z,101001.38
2023-05-17T12:21:00.356Z,101000.66
2023-05-17T12:24:02.469Z,101000.56
2023-05-17T12:27:04.973Z,100989.22
2023-05-17T12:30:16.241Z,100993.63
2023-05-17T12:33:20.347Z,100988.63
2023-05-17T12:36:23.078Z,100983.63
2023-05-17T12:39:26.219Z,100986.84
2023-05-17T12:42:29.151Z,100979.78
2023-05-17T12:45:34.290Z,100979.66
2023-05-17T12:48:38.129Z,100977.41
2023-05-17T12:51:47.321Z,100961.81
2023-05-17T12:54:50.571Z,100962.53
2023-05-17T12:57:53.937Z,100966.31
2023-05-17T13:01:10.871Z,100958.81
2023-05-17T13:04:14.479Z,100952.88
2023-05-17T13:07:24.242Z,100956.81
2023-05-17T13:10:28.466Z,100958.97
2023-05-17T13:13:33.755Z,100946.56
2023-05-17T13:16:39.718Z,100954.78
2023-05-17T13:19:42.352Z,100948.94
2023-05-17T13:22:48.288Z,100956.78
2023-05-17T13:25:50.372Z,100950.34
2023-05-17T13:28:52.520Z,100955.44
2023-05-17T13:31:54.648Z,100953.53
2023-05-17T13:34:57.142Z,100942.00
2023-05-17T13:37:59.224Z,100950.91
2023-05-17T13:41:01.390Z,100951.94
2023-05-17T13:44:03.588Z,100957.88
2023-05-17T13:47:05.997Z,100958.97
2023-05-17T13:50:09.719Z,100951.44
2023-05-17T13:53:12.401Z,100955.25
2023-05-17T13:56:15.126Z,100959.88
2023-05-17T13:59:17.192Z,100953.94
2023-05-17T14:02:19.270Z,100950.84
2023-05-17T14:05:21.642Z,100947.88
2023-05-17T14:08:24.314Z,100954.19
2023-05-17T14:11:28.342Z,100956.09
2023-05-17T14:14:30.983Z,100945.69
2023-05-17T14:17:33.647Z,100937.84
2023-05-17T14:20:35.792Z,100934.66
2023-05-17T14:23:37.952Z,100940.13
2023-05-17T14:26:42.637Z,100933.06
2023-05-17T14:29:44.750Z,100928.66
2023-05-17T14:32:47.097Z,100925.69
2023-05-17T14:35:49.344Z,100931.00
2023-05-17T14:38:51.495Z,100928.53
2023-05-17T14:41:53.600Z,100925.53
2023-05-17T14:44:55.785Z,100917.81
2023-05-17T14:47:58.058Z,100919.69
2023-05-17T14:51:00.585Z,100918.88
2023-05-17T14:54:03.614Z,100919.69
2023-05-17T14:57:06.318Z,100920.41
2023-05-17T15:00:10.689Z,100915.38
2023-05-17T15:03:13.248Z,100918.38
2023-05-17T15:06:15.533Z,100914.81
2023-05-17T15:09:18.432Z,100911.59
2023-05-17T15:12:23.130Z,100907.00
2023-05-17T15:15:26.320Z,100908.00
2023-05-17T15:18:28.490Z,100908.56
2023-05-17T15:21:31.744Z,100901.22
2023-05-17T15:24:33.892Z,100906.25
2023-05-17T15:27:36.010Z,100909.03
2023-05-17T15:30:41.451Z,100908.97
2023-05-17T15:33:43.706Z,100904.16
2023-05-17T15:36:47.619Z,100908.09
2023-05-17T15:39:49.788Z,100897.69
2023-05-17T15:42:54.809Z,100906.91
2023-05-17T15:45:56.893Z,100911.69
2023-05-17T15:48:58.991Z,100906.19
2023-05-17T15:52:01.090Z,100914.22
2023-05-17T15:55:03.287Z,100900.94
2023-05-17T15:58:08.090Z,100910.88
2023-05-17T16:01:10.928Z,100908.00
2023-05-17T16:04:14.271Z,100904.25
2023-05-17T16:07:16.956Z,100908.44
2023-05-17T16:10:19.511Z,100909.66
2023-05-17T16:13:23.313Z,100899.34
2023-05-17T16:16:26.011Z,100910.66
2023-05-17T16:19:30.629Z,100909.56
2023-05-17T16:22:33.283Z,100901.38
2023-05-17T16:25:38.712Z,100913.97
2023-05-17T16:28:43.950Z,100911.25
2023-05-17T16:31:48.422Z,100915.06
2023-05-17T16:34:50.583Z,100915.50
2023-05-17T16:37:53.270Z,100908.81
2023-05-17T16:40:56.036Z,100913.31
2023-05-17T16:43:58.143Z,100918.19
2023-05-17T16:47:01.413Z,100916.13
2023-05-17T16:50:05.344Z,100918.69
2023-05-17T16:53:07.600Z,100919.84
2023-05-17T16:56:09.840Z,100928.94
2023-05-17T16:59:14.452Z,100922.50
2023-05-17T17:02:16.819Z,100923.16
2023-05-17T17:05:21.315Z,100928.25
2023-05-17T17:08:24.152Z,100922.78
2023-05-17T17:11:26.406Z,100915.88
2023-05-17T17:14:32.212Z,100915.25
2023-05-17T17:17:35.650Z,100922.50
2023-05-17T17:20:38.088Z,100924.22
2023-05-17T17:23:40.748Z,100924.47
2023-05-17T17:26:45.068Z,100931.34
2023-05-17T17:29:47.128Z,100938.34
2023-05-17T17:32:49.384Z,100940.28
2023-05-17T17:35:51.613Z,100932.53
2023-05-17T17:38:53.784Z,100939.75
2023-05-17T17:41:58.201Z,100943.13
2023-05-17T17:45:00.592Z,100941.28
2023-05-17T17:48:02.817Z,100939.84
2023-05-17T17:51:05.293Z,100941.53
2023-05-17T17:54:07.958Z,100947.69
2023-05-17T17:57:10.120Z,100946.66
2023-05-17T18:00:13.319Z,100947.34
2023-05-17T18:03:15.663Z,100937.75
2023-05-17T18:06:17.904Z,100943.22
2023-05-17T18:09:23.388Z,100941.44
2023-05-17T18:12:27.777Z,100948.75
2023-05-17T18:15:29.977Z,100951.94
2023-05-17T18:18:32.492Z,100952.75
2023-05-17T18:21:34.608Z,100958.22
2023-05-17T18:24:36.864Z,100966.66
2023-05-17T18:27:41.451Z,100959.63
2023-05-17T18:30:43.636Z,100962.81
2023-05-17T18:33:45.744Z,100959.28
2023-05-17T18:36:48.261Z,100973.38
2023-05-17T18:39:50.445Z,100974.44
2023-05-17T18:42:52.968Z,100970.25
2023-05-17T18:45:55.410Z,100973.81
2023-05-17T18:49:00.252Z,100965.03
2023-05-17T18:52:04.419Z,100971.50
2023-05-17T18:55:06.746Z,100973.00
2023-05-17T18:58:08.806Z,100971.13
2023-05-17T19:01:11.083Z,100979.31
2023-05-17T19:04:14.575Z,100975.34
2023-05-17T19:07:16.709Z,100972.00
2023-05-17T19:10:20.917Z,100969.31
2023-05-17T19:13:24.539Z,100977.50
2023-05-17T19:16:26.773Z,100973.06
2023-05-17T19:19:28.978Z,100983.53
2023-05-17T19:22:32.615Z,100979.91
2023-05-17T19:25:35.354Z,100986.19
2023-05-17T19:28:37.732Z,100984.84
2023-05-17T19:31:39.861Z,100980.56
2023-05-17T19:34:48.823Z,100983.47
2023-05-17T19:37:50.928Z,100987.53
2023-05-17T19:40:53.459Z,100981.25
2023-05-17T19:43:56.103Z,100994.13
2023-05-17T19:46:58.356Z,100994.97
2023-05-17T19:50:00.351Z,100984.97
2023-05-17T19:53:02.773Z,100986.22
2023-05-17T19:56:08.223Z,100984.16
2023-05-17T19:59:10.511Z,100985.00
2023-05-17T20:02:12.752Z,100985.66
2023-05-17T20:05:17.182Z,100986.50
2023-05-17T20:08:19.305Z,100987.97
2023-05-17T20:11:22.497Z,100984.84
2023-05-17T20:14:26.767Z,100989.25
2023-05-17T20:17:28.885Z,100990.31
2023-05-17T20:20:31.449Z,100977.09
2023-05-17T20:23:33.748Z,100995.34
2023-05-17T20:26:37.294Z,100981.72
2023-05-17T20:29:40.735Z,100997.69
2023-05-17T20:32:42.920Z,100992.44
2023-05-17T20:35:45.063Z,100998.13
2023-05-17T20:38:47.389Z,100985.56
2023-05-17T20:41:49.902Z,100987.47
2023-05-17T20:44:53.810Z,101000.66
2023-05-17T20:47:56.107Z,101001.94
2023-05-17T20:50:58.210Z,100999.41
2023-05-17T20:54:00.188Z,101003.41
2023-05-17T20:57:04.420Z,101008.84
2023-05-17T21:00:08.804Z,101008.00
2023-05-17T21:03:11.246Z,101005.50
2023-05-17T21:06:13.656Z,101003.41
2023-05-17T21:09:15.723Z,101008.44
2023-05-17T21:12:17.833Z,101009.28
2023-05-17T21:15:19.967Z,101014.09
2023-05-17T21:18:23.525Z,101017.06
2023-05-17T21:21:26.739Z,101016.41
2023-05-17T21:24:28.820Z,101019.97
2023-05-17T21:27:30.972Z,101015.81
2023-05-17T21:30:33.314Z,101023.78
2023-05-17T21:33:35.641Z,101018.97
2023-05-17T21:36:37.805Z,101021.69
2023-05-17T21:39:39.881Z,101016.22
2023-05-17T21:42:42.222Z,101018.31
2023-05-17T21:45:44.290Z,101026.09
2023-05-17T21:48:46.714Z,101028.19
2023-05-17T21:51:48.838Z,101020.22
2023-05-17T21:54:51.019Z,101019.38
2023-05-17T21:57:53.137Z,101030.06
2023-05-17T22:00:55.352Z,101034.91
2023-05-17T22:03:57.711Z,101022.94
2023-05-17T22:06:59.937Z,101033.63
2023-05-17T22:10:02.745Z,101041.41
2023-05-17T22:13:06.343Z,101043.72
2023-05-17T22:16:09.025Z,101035.34
2023-05-17T22:19:11.472Z,101038.06
2023-05-17T22:22:13.648Z,101050.03
2023-05-17T22:25:17.521Z,101043.72
2023-05-17T22:28:19.837Z,101026.53
2023-05-17T22:31:22.721Z,101042.47
2023-05-17T22:34:24.886Z,101038.72
2023-05-17T22:37:26.976Z,101043.31
2023-05-17T22:40:29.402Z,101042.06
2023-05-17T22:43:31.563Z,101035.53
2023-05-17T22:46:33.971Z,101037.25
2023-05-17T22:49:36.103Z,101033.44
2023-05-17T22:52:41.177Z,101027.56
2023-05-17T22:55:48.810Z,101030.06
2023-05-17T22:58:50.874Z,101022.50
2023-05-17T23:01:53.434Z,101024.41
2023-05-17T23:04:55.876Z,101027.13
2023-05-17T23:07:58.060Z,101022.50
2023-05-17T23:11:01.879Z,101026.72
2023-05-17T23:14:04.177Z,101029.44
2023-05-17T23:17:06.274Z,101021.47
2023-05-17T23:20:10.485Z,101020.63
2023-05-17T23:23:13.559Z,101030.47
2023-05-17T23:26:17.357Z,101029.66
2023-05-17T23:29:20.160Z,101030.47
2023-05-17T23:32:23.302Z,101035.31
2023-05-17T23:35:25.325Z,101040.97
2023-05-17T23:38:27.600Z,101042.44
2023-05-17T23:41:29.672Z,101040.56
2023-05-17T23:44:33.501Z,101048.75
2023-05-17T23:47:35.701Z,101044.13
2023-05-17T23:50:38.062Z,101049.78
2023-05-17T23:53:42.266Z,101050.84
2023-05-17T23:56:44.344Z,101051.06
2023-05-17T23:59:46.484Z,101053.78
